Time;durP1;ratioP1;P1;durP2;ratioP2;P2;SDS_P1;SDS_P2;PMS_P1;PMS_P2;Temp;Humidity;BMP_temperature;BMP_pressure;BME280_temperature;BME280_humidity;BME280_pressure;Samples;Min_cycle;Max_cycle;Signal;HPM_P1;HPM_P2
2021/05/23 00:01:16;;;;;;;8.45;4.90;;;12.70;99.20;;;;;;4992448;28;20043;-70
2021/05/23 00:03:42;;;;;;;7.97;4.85;;;12.70;99.00;;;;;;4991840;28;20034;-69
2021/05/23 00:06:07;;;;;;;6.57;4.75;;;12.60;99.40;;;;;;4991386;28;20058;-70
2021/05/23 00:08:33;;;;;;;6.28;4.60;;;12.60;99.30;;;;;;4976183;28;20113;-70
2021/05/23 00:11:07;;;;;;;8.75;4.95;;;12.70;99.20;;;;;;4991615;28;20040;-69
2021/05/23 00:13:44;;;;;;;6.10;5.05;;;12.60;99.40;;;;;;4991748;28;20061;-69
2021/05/23 00:16:15;;;;;;;7.47;5.15;;;12.60;99.50;;;;;;4991652;28;20460;-71
2021/05/23 00:18:45;;;;;;;7.20;5.47;;;12.70;99.40;;;;;;4991677;28;20042;-70
2021/05/23 00:21:13;;;;;;;7.50;5.65;;;12.80;99.20;;;;;;4991687;28;20026;-69
2021/05/23 00:23:39;;;;;;;7.43;5.18;;;12.80;99.30;;;;;;4993142;28;20335;-70
2021/05/23 00:26:05;;;;;;;7.25;5.43;;;12.70;99.20;;;;;;4991848;28;20042;-70
2021/05/23 00:28:32;;;;;;;6.88;5.65;;;12.70;99.40;;;;;;4991612;28;20137;-69
2021/05/23 00:31:02;;;;;;;7.40;5.22;;;12.70;99.40;;;;;;4991076;28;20038;-70
2021/05/23 00:33:27;;;;;;;6.45;5.28;;;12.70;99.40;;;;;;4991163;28;20439;-69
2021/05/23 00:35:53;;;;;;;7.68;5.20;;;12.70;99.30;;;;;;4992492;28;20054;-69
2021/05/23 00:38:19;;;;;;;6.22;4.15;;;12.80;99.10;;;;;;4991053;28;20043;-69
2021/05/23 00:40:44;;;;;;;6.43;5.32;;;12.90;99.20;;;;;;4973840;28;20125;-69
2021/05/23 00:43:15;;;;;;;6.93;4.63;;;12.90;99.20;;;;;;4991217;28;20033;-69
2021/05/23 00:45:41;;;;;;;5.45;4.45;;;12.90;99.10;;;;;;4991233;28;20137;-70
2021/05/23 00:48:07;;;;;;;4.40;3.80;;;12.80;98.90;;;;;;4990933;28;20054;-68
2021/05/23 00:50:33;;;;;;;6.65;4.78;;;12.80;98.90;;;;;;4992826;28;20027;-69
2021/05/23 00:53:00;;;;;;;7.53;4.63;;;12.80;99.00;;;;;;4990840;28;20038;-68
2021/05/23 00:55:26;;;;;;;6.57;4.32;;;12.90;99.00;;;;;;4990914;28;20038;-68
2021/05/23 00:57:52;;;;;;;8.10;4.53;;;12.90;99.20;;;;;;4991054;28;20114;-70
2021/05/23 01:00:35;;;;;;;5.00;3.92;;;12.90;99.20;;;;;;4991175;28;20027;-69
2021/05/23 01:03:02;;;;;;;9.90;4.95;;;12.90;99.00;;;;;;4990939;28;20049;-69
2021/05/23 01:05:29;;;;;;;7.53;4.97;;;12.90;99.20;;;;;;4991566;28;20092;-70
2021/05/23 01:07:54;;;;;;;5.18;4.50;;;12.90;99.30;;;;;;4970098;28;20071;-71
2021/05/23 01:10:25;;;;;;;4.70;4.13;;;12.90;99.40;;;;;;4971273;28;20065;-69
2021/05/23 01:12:53;;;;;;;5.57;4.10;;;12.80;99.50;;;;;;4970029;28;20105;-69
2021/05/23 01:15:35;;;;;;;5.22;3.65;;;13.00;99.40;;;;;;4970008;28;20045;-69
2021/05/23 01:18:08;;;;;;;4.07;3.67;;;13.00;99.10;;;;;;4971217;28;20066;-69
2021/05/23 01:20:59;;;;;;;6.22;4.00;;;13.10;99.10;;;;;;4972663;28;20023;-69
2021/05/23 01:23:41;;;;;;;4.75;3.78;;;12.90;99.30;;;;;;4971758;28;20056;-70
2021/05/23 01:26:09;;;;;;;5.05;4.28;;;12.90;99.20;;;;;;4971260;28;20051;-68
2021/05/23 01:28:58;;;;;;;4.70;3.80;;;12.80;99.50;;;;;;4970956;28;20054;-69
2021/05/23 01:31:27;;;;;;;3.97;3.50;;;12.90;99.50;;;;;;4970936;28;20034;-70
2021/05/23 01:33:55;;;;;;;5.78;3.85;;;12.90;99.80;;;;;;4971023;28;20538;-69
2021/05/23 01:36:22;;;;;;;;;;;12.80;99.70;;;;;;4957262;28;20114;-70
2021/05/23 01:38:48;;;;;;;5.10;4.00;;;12.90;99.70;;;;;;4953442;28;20333;-71
2021/05/23 01:41:14;;;;;;;5.57;4.30;;;12.90;99.80;;;;;;4951926;28;20074;-71
2021/05/23 01:43:40;;;;;;;5.43;4.65;;;13.00;99.70;;;;;;4951883;28;20495;-70
2021/05/23 01:46:06;;;;;;;5.50;3.65;;;13.00;99.90;;;;;;4951064;28;20061;-70
2021/05/23 01:48:35;;;;;;;4.97;3.53;;;12.90;99.80;;;;;;4951709;28;20051;-70
2021/05/23 01:51:00;;;;;;;4.93;4.15;;;12.70;99.90;;;;;;4951590;28;20090;-69
2021/05/23 01:53:26;;;;;;;4.85;3.75;;;12.80;99.90;;;;;;4953183;28;20622;-70
2021/05/23 01:55:52;;;;;;;4.15;3.70;;;12.80;99.90;;;;;;4951735;28;20130;-70
2021/05/23 01:58:18;;;;;;;4.95;3.97;;;12.90;99.90;;;;;;4951559;28;20027;-70
2021/05/23 02:00:46;;;;;;;9.23;4.15;;;12.90;99.90;;;;;;4951383;28;20035;-70
2021/05/23 02:03:14;;;;;;;4.18;3.65;;;12.90;99.90;;;;;;4951458;28;20055;-69
2021/05/23 02:05:45;;;;;;;4.97;4.27;;;12.80;99.90;;;;;;4953358;28;20019;-69
2021/05/23 02:08:16;;;;;;;5.38;4.00;;;12.90;99.90;;;;;;4970526;28;20280;-70
2021/05/23 02:10:42;;;;;;;5.38;4.15;;;12.80;99.90;;;;;;4970370;28;20031;-70
2021/05/23 02:13:09;;;;;;;4.32;3.78;;;12.80;99.90;;;;;;4970293;28;20033;-70
2021/05/23 02:15:36;;;;;;;7.15;4.88;;;12.60;99.90;;;;;;4969718;28;20031;-70
2021/05/23 02:18:03;;;;;;;6.55;4.68;;;12.70;99.90;;;;;;4970432;28;20356;-69
2021/05/23 02:20:30;;;;;;;7.97;4.93;;;12.60;99.90;;;;;;4971907;28;20030;-70
2021/05/23 02:22:58;;;;;;;7.20;4.93;;;12.50;99.90;;;;;;4968740;28;20118;-69
2021/05/23 02:25:25;;;;;;;6.80;4.82;;;12.40;99.90;;;;;;4970423;28;20039;-69
2021/05/23 02:27:53;;;;;;;6.72;4.60;;;12.40;99.90;;;;;;4970365;28;20043;-69
2021/05/23 02:30:19;;;;;;;;;;;12.50;99.90;;;;;;4970663;28;20090;-70
2021/05/23 02:32:46;;;;;;;6.40;4.85;;;12.50;99.90;;;;;;4971820;28;19952;-69
2021/05/23 02:35:14;;;;;;;8.77;5.20;;;12.50;99.90;;;;;;4970264;28;20058;-69
2021/05/23 02:37:40;;;;;;;8.68;5.00;;;12.60;99.90;;;;;;4969397;28;20059;-70
2021/05/23 02:40:09;;;;;;;6.43;4.78;;;12.50;99.90;;;;;;4952951;28;20089;-70
2021/05/23 02:42:36;;;;;;;7.45;4.63;;;12.60;99.90;;;;;;4970041;28;20034;-70
2021/05/23 02:45:03;;;;;;;6.43;4.20;;;12.60;99.90;;;;;;4969088;28;20061;-70
2021/05/23 02:47:29;;;;;;;8.93;4.90;;;12.60;99.90;;;;;;4971569;28;20113;-70
2021/05/23 02:49:54;;;;;;;9.10;4.97;;;12.40;99.90;;;;;;4970473;28;20152;-70
2021/05/23 02:52:20;;;;;;;8.38;4.78;;;12.50;99.90;;;;;;4953048;28;20508;-70
2021/05/23 02:54:46;;;;;;;8.10;5.28;;;12.30;99.90;;;;;;4969932;28;20035;-71
2021/05/23 02:57:11;;;;;;;8.77;5.90;;;12.20;99.90;;;;;;4970318;28;20061;-71
2021/05/23 02:59:37;;;;;;;9.73;5.55;;;12.20;99.90;;;;;;4975061;28;20019;-70
2021/05/23 03:02:04;;;;;;;11.85;6.65;;;12.20;99.90;;;;;;4973542;28;20027;-70
2021/05/23 03:04:30;;;;;;;12.05;6.65;;;12.20;99.90;;;;;;4973856;28;20190;-70
2021/05/23 03:06:55;;;;;;;12.02;6.03;;;12.20;99.90;;;;;;4973479;28;20653;-70
2021/05/23 03:09:21;;;;;;;12.30;6.30;;;12.30;99.90;;;;;;4973406;28;20408;-70
2021/05/23 03:11:47;;;;;;;11.18;6.43;;;12.40;99.90;;;;;;4975110;28;20106;-71
2021/05/23 03:14:13;;;;;;;7.15;5.60;;;12.50;99.90;;;;;;4973360;28;20410;-70
2021/05/23 03:16:39;;;;;;;10.25;6.13;;;12.50;99.90;;;;;;4973469;28;20075;-70
2021/05/23 03:19:05;;;;;;;7.78;6.15;;;12.40;99.90;;;;;;4973308;28;20153;-70
2021/05/23 03:21:30;;;;;;;9.57;7.18;;;12.40;99.90;;;;;;4972927;28;20162;-70
2021/05/23 03:23:56;;;;;;;9.80;6.63;;;12.30;99.90;;;;;;4974707;28;20026;-71
2021/05/23 03:26:22;;;;;;;12.82;6.68;;;12.20;99.90;;;;;;4972178;28;20049;-69
2021/05/23 03:28:47;;;;;;;10.15;6.25;;;12.20;99.90;;;;;;4972931;28;20046;-70
2021/05/23 03:31:13;;;;;;;12.40;6.22;;;12.40;99.90;;;;;;4972088;28;20355;-70
2021/05/23 03:33:39;;;;;;;10.07;6.15;;;12.50;99.90;;;;;;4971976;28;20051;-70
2021/05/23 03:36:04;;;;;;;9.90;5.75;;;12.60;99.90;;;;;;4973442;28;20027;-70
2021/05/23 03:38:30;;;;;;;10.25;6.10;;;12.50;99.90;;;;;;4973611;28;20479;-70
2021/05/23 03:40:56;;;;;;;7.97;6.18;;;12.40;99.90;;;;;;4973158;28;20420;-71
2021/05/23 03:43:22;;;;;;;8.63;5.82;;;12.40;99.90;;;;;;4972673;28;20031;-70
2021/05/23 03:45:47;;;;;;;11.25;6.93;;;12.30;99.90;;;;;;4972463;28;20030;-69
2021/05/23 03:48:13;;;;;;;12.05;6.63;;;12.40;99.90;;;;;;4972571;28;20023;-70
2021/05/23 03:50:38;;;;;;;13.68;6.93;;;12.30;99.90;;;;;;4974434;28;20085;-70
2021/05/23 03:53:04;;;;;;;13.02;8.00;;;12.30;99.90;;;;;;4971704;28;20117;-69
2021/05/23 03:55:30;;;;;;;10.75;6.90;;;12.40;99.90;;;;;;4972771;28;20039;-70
2021/05/23 03:57:57;;;;;;;12.63;6.85;;;12.30;99.90;;;;;;4955733;28;20062;-69
2021/05/23 04:00:24;;;;;;;13.13;7.00;;;12.10;99.90;;;;;;4972735;28;20114;-69
2021/05/23 04:02:54;;;;;;;11.35;6.25;;;12.10;99.90;;;;;;4974157;28;20412;-69
2021/05/23 04:05:23;;;;;;;12.63;6.40;;;12.10;99.90;;;;;;4971553;28;20054;-70
2021/05/23 04:07:49;;;;;;;13.00;6.10;;;12.10;99.90;;;;;;4971729;28;20051;-70
2021/05/23 04:10:18;;;;;;;8.45;5.90;;;12.30;99.90;;;;;;4971679;28;20126;-69
2021/05/23 04:12:46;;;;;;;11.00;6.00;;;12.30;99.90;;;;;;4971243;28;20030;-69
2021/05/23 04:15:13;;;;;;;11.77;5.72;;;12.00;99.90;;;;;;4971103;28;20023;-71
2021/05/23 04:17:39;;;;;;;12.45;5.60;;;12.10;99.90;;;;;;4973766;28;20027;-71
2021/05/23 04:20:07;;;;;;;9.32;5.75;;;12.10;99.90;;;;;;4972833;28;20039;-70
2021/05/23 04:22:34;;;;;;;11.68;5.25;;;12.00;99.90;;;;;;4972222;28;20077;-71
2021/05/23 04:25:00;;;;;;;10.68;5.10;;;11.90;99.90;;;;;;4972225;28;20421;-70
2021/05/23 04:27:26;;;;;;;10.90;5.35;;;11.90;99.90;;;;;;4971377;28;20137;-70
2021/05/23 04:29:52;;;;;;;9.77;4.85;;;12.00;99.90;;;;;;4973867;28;20110;-70
2021/05/23 04:32:17;;;;;;;10.55;5.15;;;12.20;99.90;;;;;;4972337;28;20404;-70
2021/05/23 04:34:43;;;;;;;9.25;4.75;;;12.30;99.90;;;;;;4971884;28;20034;-70
2021/05/23 04:37:08;;;;;;;15.25;4.97;;;12.20;99.90;;;;;;4971383;28;20443;-70
2021/05/23 04:39:35;;;;;;;10.65;4.82;;;12.30;99.90;;;;;;4971888;28;20035;-71
2021/05/23 04:42:01;;;;;;;9.90;5.07;;;12.30;99.90;;;;;;4971820;28;20023;-70
2021/05/23 04:44:27;;;;;;;13.27;4.85;;;12.30;99.90;;;;;;4973664;28;20095;-71
2021/05/23 04:46:53;;;;;;;13.50;4.90;;;12.30;99.90;;;;;;4971970;28;20031;-70
2021/05/23 04:49:18;;;;;;;8.98;4.70;;;12.40;99.90;;;;;;4971826;28;20429;-70
2021/05/23 04:51:44;;;;;;;11.40;4.75;;;12.40;99.90;;;;;;4971911;28;20023;-69
2021/05/23 04:54:10;;;;;;;6.20;3.80;;;12.30;99.70;;;;;;4971465;28;20449;-71
2021/05/23 04:56:36;;;;;;;10.43;4.25;;;12.30;99.90;;;;;;4973296;28;20100;-70
2021/05/23 04:59:01;;;;;;;12.65;4.43;;;12.40;99.90;;;;;;4971822;28;20453;-70
2021/05/23 05:01:27;;;;;;;10.63;4.07;;;12.40;99.90;;;;;;4971343;28;20456;-70
2021/05/23 05:03:53;;;;;;;11.93;4.13;;;12.10;99.70;;;;;;4971353;28;20059;-70
2021/05/23 05:06:18;;;;;;;9.25;3.67;;;12.30;99.90;;;;;;4971140;28;20053;-70
2021/05/23 05:08:46;;;;;;;9.25;4.63;;;12.30;99.90;;;;;;4973016;28;20058;-70
2021/05/23 05:11:12;;;;;;;17.48;4.25;;;12.40;99.90;;;;;;4971171;28;20038;-70
2021/05/23 05:13:37;;;;;;;10.30;4.15;;;12.40;99.60;;;;;;4971190;28;20034;-70
2021/05/23 05:16:04;;;;;;;15.38;4.45;;;12.40;99.80;;;;;;4971331;28;20031;-69
2021/05/23 05:18:29;;;;;;;9.93;3.85;;;12.50;99.70;;;;;;4971570;28;20289;-70
2021/05/23 05:20:55;;;;;;;9.80;4.10;;;12.40;99.50;;;;;;4972259;28;20015;-70
2021/05/23 05:23:21;;;;;;;11.35;4.25;;;12.40;99.70;;;;;;4954158;28;20071;-69
2021/05/23 05:25:47;;;;;;;16.10;4.82;;;12.40;99.90;;;;;;4953661;28;20047;-69
2021/05/23 05:28:12;;;;;;;14.93;4.30;;;12.40;99.40;;;;;;4970036;28;20054;-69
2021/05/23 05:30:38;;;;;;;8.82;3.63;;;12.40;99.60;;;;;;4970920;28;20049;-70
2021/05/23 05:33:04;;;;;;;16.52;3.90;;;12.40;99.60;;;;;;4971084;28;20141;-70
2021/05/23 05:35:29;;;;;;;10.50;4.07;;;12.60;99.50;;;;;;4972852;28;20527;-70
2021/05/23 05:37:55;;;;;;;15.50;4.10;;;12.60;99.40;;;;;;4970842;28;20046;-70
2021/05/23 05:40:21;;;;;;;8.55;3.40;;;12.60;99.20;;;;;;4971005;28;20384;-69
2021/05/23 05:42:47;;;;;;;13.40;3.50;;;12.70;99.20;;;;;;4971098;28;20056;-70
2021/05/23 05:45:13;;;;;;;9.50;4.00;;;12.70;99.20;;;;;;4970515;28;20027;-69
2021/05/23 05:47:39;;;;;;;13.45;4.63;;;12.90;99.30;;;;;;4971377;28;20042;-68
2021/05/23 05:50:06;;;;;;;10.40;4.45;;;12.90;99.00;;;;;;4971114;28;20039;-69
2021/05/23 05:52:32;;;;;;;11.13;3.75;;;12.90;98.90;;;;;;4970751;28;20038;-73
2021/05/23 05:54:57;;;;;;;11.30;4.55;;;13.00;98.80;;;;;;4970203;28;20047;-68
2021/05/23 05:57:23;;;;;;;8.18;3.58;;;13.00;98.90;;;;;;4971089;28;20088;-71
2021/05/23 05:59:48;;;;;;;8.73;3.92;;;13.10;99.00;;;;;;4972203;28;20035;-70
2021/05/23 06:02:15;;;;;;;12.25;3.72;;;13.20;99.20;;;;;;4970506;28;20031;-70
2021/05/23 06:04:41;;;;;;;12.45;4.10;;;13.10;99.00;;;;;;4970804;28;20484;-70
2021/05/23 06:07:06;;;;;;;10.07;3.60;;;13.20;98.60;;;;;;4970273;28;20055;-74
2021/05/23 06:09:32;;;;;;;9.00;4.55;;;13.10;98.60;;;;;;4953887;28;20484;-73
2021/05/23 06:11:58;;;;;;;17.73;4.18;;;13.20;98.80;;;;;;4970548;28;20026;-72
2021/05/23 06:14:23;;;;;;;12.18;3.55;;;13.10;98.80;;;;;;4972148;28;20157;-70
2021/05/23 06:16:49;;;;;;;10.75;4.13;;;13.20;98.70;;;;;;4970187;28;20134;-69
2021/05/23 06:19:15;;;;;;;11.38;4.40;;;13.20;98.50;;;;;;4969440;28;20030;-70
2021/05/23 06:21:40;;;;;;;10.85;4.47;;;13.00;98.50;;;;;;4969954;28;20031;-69
2021/05/23 06:24:06;;;;;;;10.25;4.18;;;13.10;98.30;;;;;;4970907;28;20046;-78
2021/05/23 06:26:32;;;;;;;9.63;4.03;;;13.10;98.10;;;;;;4972121;28;20440;-75
2021/05/23 06:28:58;;;;;;;10.43;4.22;;;13.00;98.60;;;;;;4970688;28;20117;-70
2021/05/23 06:31:23;;;;;;;8.32;4.20;;;13.10;98.40;;;;;;4969218;28;20031;-75
2021/05/23 06:33:49;;;;;;;12.55;4.70;;;12.90;98.10;;;;;;4973640;28;20078;-69
2021/05/23 06:36:15;;;;;;;12.68;4.18;;;13.00;98.50;;;;;;4957333;28;20344;-72
2021/05/23 06:38:40;;;;;;;13.38;4.10;;;13.00;98.20;;;;;;4958902;28;20031;-71
2021/05/23 06:41:06;;;;;;;10.50;4.38;;;12.90;97.50;;;;;;4974111;28;20057;-69
2021/05/23 06:43:32;;;;;;;10.52;4.15;;;13.00;97.80;;;;;;4973932;28;20047;-71
2021/05/23 06:45:58;;;;;;;11.93;4.40;;;13.10;97.90;;;;;;4974124;28;20039;-71
2021/05/23 06:48:23;;;;;;;8.73;4.30;;;13.30;97.90;;;;;;4973486;28;20035;-71
2021/05/23 06:50:51;;;;;;;13.13;4.43;;;13.40;98.00;;;;;;4975703;28;20106;-72
2021/05/23 06:53:16;;;;;;;11.03;4.30;;;13.60;97.60;;;;;;4973097;28;20054;-73
2021/05/23 06:55:42;;;;;;;10.23;3.90;;;13.50;97.20;;;;;;4956726;28;20035;-72
2021/05/23 06:58:08;;;;;;;11.80;4.85;;;13.60;97.20;;;;;;4956301;28;20039;-73
2021/05/23 07:00:34;;;;;;;9.85;3.67;;;13.60;97.40;;;;;;4973891;28;20035;-73
2021/05/23 07:02:59;;;;;;;12.18;4.28;;;13.70;96.90;;;;;;4973934;28;20443;-70
2021/05/23 07:05:25;;;;;;;11.23;3.90;;;13.80;97.10;;;;;;4974349;28;20019;-71
2021/05/23 07:07:51;;;;;;;7.03;4.00;;;13.80;96.60;;;;;;4956075;28;20112;-73
2021/05/23 07:10:17;;;;;;;11.15;4.25;;;14.10;96.50;;;;;;4956556;28;20114;-72
2021/05/23 07:12:42;;;;;;;13.27;3.85;;;14.30;96.00;;;;;;4956536;28;20031;-72
2021/05/23 07:15:08;;;;;;;10.88;3.58;;;14.30;95.60;;;;;;4971899;28;20459;-73
2021/05/23 07:17:34;;;;;;;11.63;4.22;;;14.30;96.00;;;;;;4994699;28;20056;-73
2021/05/23 07:20:00;;;;;;;9.32;3.60;;;14.30;95.60;;;;;;4992552;28;20606;-72
2021/05/23 07:22:26;;;;;;;16.98;4.07;;;14.40;95.70;;;;;;4992873;28;20038;-74
2021/05/23 07:24:51;;;;;;;11.70;3.30;;;14.60;95.60;;;;;;4975441;28;20423;-72
2021/05/23 07:27:17;;;;;;;9.35;2.88;;;14.90;95.10;;;;;;4992548;28;20060;-72
2021/05/23 07:29:43;;;;;;;7.63;2.80;;;14.90;93.90;;;;;;4994655;28;20101;-72
2021/05/23 07:32:09;;;;;;;7.93;2.90;;;15.20;94.10;;;;;;4992860;28;20113;-73
2021/05/23 07:34:35;;;;;;;4.43;2.60;;;15.40;93.50;;;;;;4975341;28;20046;-72
2021/05/23 07:37:00;;;;;;;5.93;3.05;;;15.50;93.20;;;;;;4975549;28;20038;-71
2021/05/23 07:39:26;;;;;;;8.10;3.70;;;15.60;93.10;;;;;;4992930;28;20042;-72
2021/05/23 07:41:52;;;;;;;6.25;2.88;;;15.60;92.70;;;;;;4994020;28;20032;-72
2021/05/23 07:44:18;;;;;;;6.93;3.25;;;15.70;92.80;;;;;;4991364;28;20059;-71
2021/05/23 07:46:44;;;;;;;13.00;3.10;;;16.00;92.70;;;;;;4992522;28;20515;-72
2021/05/23 07:49:10;;;;;;;6.97;3.05;;;16.00;91.90;;;;;;4992375;28;20038;-71
2021/05/23 07:51:36;;;;;;;6.82;2.70;;;15.70;91.50;;;;;;4992352;28;20054;-73
2021/05/23 07:54:03;;;;;;;8.93;2.63;;;16.00;91.90;;;;;;4993184;28;20399;-73
2021/05/23 07:56:28;;;;;;;5.63;2.42;;;15.90;91.40;;;;;;4993850;28;20088;-73
2021/05/23 07:58:54;;;;;;;5.28;2.95;;;16.00;90.60;;;;;;4992355;28;20034;-72
2021/05/23 08:01:20;;;;;;;6.68;2.08;;;16.10;90.30;;;;;;4992158;28;20192;-72
2021/05/23 08:03:45;;;;;;;6.75;2.55;;;16.30;90.60;;;;;;4992039;28;20117;-72
2021/05/23 08:06:13;;;;;;;6.80;2.38;;;16.70;90.10;;;;;;4991751;28;20065;-72
2021/05/23 08:08:39;;;;;;;3.80;2.23;;;16.70;87.90;;;;;;4993663;28;20027;-70
2021/05/23 08:11:04;;;;;;;5.40;2.50;;;17.00;89.40;;;;;;4992502;28;20041;-71
2021/05/23 08:13:30;;;;;;;7.28;2.28;;;17.70;87.80;;;;;;4991624;28;20046;-72
2021/05/23 08:15:58;;;;;;;5.78;2.10;;;17.70;85.30;;;;;;4991906;28;20125;-72
2021/05/23 08:18:30;;;;;;;5.20;2.03;;;17.40;83.20;;;;;;4975120;28;20137;-72
2021/05/23 08:21:00;;;;;;;5.43;2.25;;;16.80;82.80;;;;;;4993492;28;20826;-73
2021/05/23 08:23:27;;;;;;;6.57;2.55;;;16.70;83.30;;;;;;4975100;28;20026;-72
2021/05/23 08:25:53;;;;;;;2.85;1.88;;;16.50;84.20;;;;;;4991681;28;20038;-73
2021/05/23 08:28:19;;;;;;;7.78;2.63;;;16.60;86.10;;;;;;4991895;28;20030;-73
2021/05/23 08:30:44;;;;;;;6.47;2.60;;;16.80;86.60;;;;;;4973972;28;20045;-71
2021/05/23 08:33:11;;;;;;;5.88;2.38;;;17.20;85.00;;;;;;4990783;28;20026;-72
2021/05/23 08:35:38;;;;;;;8.77;2.53;;;17.60;85.20;;;;;;4993081;28;20023;-71
2021/05/23 08:38:03;;;;;;;9.45;2.58;;;17.90;84.10;;;;;;4991252;28;20042;-72
2021/05/23 08:40:29;;;;;;;8.00;2.75;;;17.60;82.60;;;;;;4974227;28;20404;-72
2021/05/23 08:42:55;;;;;;;4.88;2.67;;;17.30;84.40;;;;;;4990887;28;20117;-72
2021/05/23 08:45:20;;;;;;;5.55;2.28;;;17.00;85.20;;;;;;4991025;28;20117;-72
2021/05/23 08:47:46;;;;;;;5.35;2.50;;;16.50;84.30;;;;;;4992755;28;20034;-71
2021/05/23 08:50:16;;;;;;;5.15;1.77;;;16.30;83.30;;;;;;4991199;28;20034;-73
2021/05/23 08:52:42;;;;;;;5.53;2.22;;;16.00;83.70;;;;;;4990965;28;20038;-72
2021/05/23 08:55:08;;;;;;;6.53;2.15;;;16.10;83.80;;;;;;4973689;28;20026;-72
2021/05/23 08:57:34;;;;;;;13.40;2.65;;;16.20;83.50;;;;;;4991134;28;20050;-71
2021/05/23 09:00:00;;;;;;;3.63;2.00;;;16.60;84.90;;;;;;4990830;28;20018;-71
2021/05/23 09:02:26;;;;;;;6.05;2.05;;;17.00;82.80;;;;;;4992852;28;20053;-71
2021/05/23 09:04:53;;;;;;;6.35;2.03;;;16.90;82.70;;;;;;4991171;28;20407;-71
2021/05/23 09:07:19;;;;;;;7.32;2.53;;;16.70;83.50;;;;;;4990462;28;20141;-72
2021/05/23 09:09:47;;;;;;;5.00;2.72;;;16.60;84.00;;;;;;4990762;28;20455;-72
2021/05/23 09:12:18;;;;;;;3.92;2.40;;;16.60;84.80;;;;;;4974128;28;20100;-72
2021/05/23 09:14:47;;;;;;;4.78;2.58;;;16.70;84.90;;;;;;4992229;28;20463;-71
2021/05/23 09:17:26;;;;;;;8.15;2.22;;;16.80;85.60;;;;;;4973494;28;20053;-71
2021/05/23 09:19:53;;;;;;;7.18;2.50;;;16.90;85.30;;;;;;4973378;28;20503;-73
2021/05/23 09:22:23;;;;;;;6.95;2.33;;;16.60;85.50;;;;;;4990527;28;20081;-72
2021/05/23 09:24:59;;;;;;;4.75;2.17;;;16.60;86.40;;;;;;4990456;28;20633;-72
2021/05/23 09:27:28;;;;;;;4.35;2.42;;;16.50;87.00;;;;;;4990104;28;20046;-73
2021/05/23 09:30:23;;;;;;;5.50;2.50;;;16.20;87.70;;;;;;4991423;28;20169;-72
2021/05/23 09:32:51;;;;;;;6.07;2.75;;;15.90;88.10;;;;;;4970393;28;20068;-74
2021/05/23 09:35:17;;;;;;;5.38;2.90;;;15.80;88.60;;;;;;4990768;28;20065;-71
2021/05/23 09:37:43;;;;;;;6.03;2.83;;;15.60;89.30;;;;;;4990812;28;20483;-72
2021/05/23 09:40:16;;;;;;;4.68;2.60;;;15.40;90.00;;;;;;4990206;28;20479;-73
2021/05/23 09:42:47;;;;;;;7.10;2.65;;;15.50;90.30;;;;;;4990365;28;20040;-72
2021/05/23 09:45:14;;;;;;;6.22;2.67;;;15.50;90.50;;;;;;4972967;28;20097;-74
2021/05/23 09:47:53;;;;;;;5.70;2.55;;;15.40;90.80;;;;;;4974807;28;20220;-72
2021/05/23 09:50:34;;;;;;;6.53;2.55;;;15.40;90.30;;;;;;4990071;28;20037;-72
2021/05/23 09:53:00;;;;;;;4.88;2.20;;;15.50;90.20;;;;;;4990275;28;20490;-73
2021/05/23 09:55:27;;;;;;;4.20;2.70;;;15.60;90.30;;;;;;4990052;28;20115;-72
2021/05/23 09:57:53;;;;;;;6.85;3.05;;;15.80;90.40;;;;;;4990062;28;20038;-71
2021/05/23 10:00:19;;;;;;;4.00;2.60;;;15.90;90.50;;;;;;4990132;28;20598;-72
2021/05/23 10:02:55;;;;;;;6.30;2.80;;;16.00;90.50;;;;;;4991621;28;20022;-72
2021/05/23 10:05:22;;;;;;;4.45;2.42;;;16.00;90.20;;;;;;4989688;28;20053;-72
2021/05/23 10:07:48;;;;;;;2.25;2.03;;;16.10;90.10;;;;;;4991035;28;20049;-72
2021/05/23 10:10:14;;;;;;;5.20;2.58;;;16.00;90.00;;;;;;4993706;28;20488;-72
2021/05/23 10:12:42;;;;;;;6.25;2.45;;;16.00;89.90;;;;;;4992822;28;20046;-72
2021/05/23 10:15:10;;;;;;;5.15;3.92;;;16.20;90.00;;;;;;4993911;28;20113;-70
2021/05/23 10:17:41;;;;;;;6.03;3.33;;;16.30;89.70;;;;;;4995513;28;20018;-72
2021/05/23 10:20:09;;;;;;;1.67;1.58;;;16.20;89.90;;;;;;4993894;28;20405;-71
2021/05/23 10:22:37;;;;;;;2.58;2.17;;;16.10;89.60;;;;;;4993965;28;20039;-72
2021/05/23 10:25:14;;;;;;;4.15;2.05;;;16.10;90.00;;;;;;4994047;28;20042;-71
2021/05/23 10:27:43;;;;;;;2.42;2.10;;;16.10;89.50;;;;;;4993417;28;20149;-70
2021/05/23 10:30:10;;;;;;;3.35;1.95;;;15.90;89.60;;;;;;4993759;28;20050;-72
2021/05/23 10:32:38;;;;;;;4.90;2.08;;;15.80;89.80;;;;;;4995270;28;20022;-72
2021/05/23 10:35:24;;;;;;;4.20;2.10;;;15.90;90.00;;;;;;4992829;28;20065;-71
2021/05/23 10:37:52;;;;;;;2.65;1.70;;;15.80;89.80;;;;;;4976074;28;20050;-71
2021/05/23 10:40:30;;;;;;;2.30;1.80;;;15.80;89.60;;;;;;4976320;28;20057;-71
2021/05/23 10:42:58;;;;;;;2.80;1.77;;;15.70;89.60;;;;;;4993462;28;20050;-72
2021/05/23 10:45:28;;;;;;;3.78;1.67;;;15.70;90.20;;;;;;4993038;28;20038;-73
2021/05/23 10:47:56;;;;;;;3.60;1.17;;;15.70;90.40;;;;;;4978009;28;20532;-72
2021/05/23 10:50:47;;;;;;;3.45;1.60;;;15.50;90.50;;;;;;4993364;28;20034;-70
2021/05/23 10:54:10;;;;;;;1.30;1.15;;;15.60;90.40;;;;;;4993516;28;20348;-72
2021/05/23 10:56:35;;;;;;;1.48;1.38;;;15.60;90.40;;;;;;4993536;28;20034;-72
2021/05/23 11:01:55;;;;;;;1.98;1.58;;;15.50;90.70;;;;;;4992776;28;20178;-72
2021/05/23 11:04:33;;;;;;;2.47;1.40;;;15.50;91.00;;;;;;4993189;28;20031;-72
2021/05/23 11:07:08;;;;;;;1.45;1.13;;;15.40;90.90;;;;;;4991199;28;20471;-72
2021/05/23 11:09:37;;;;;;;2.40;1.50;;;15.20;90.80;;;;;;4993189;28;20096;-73
2021/05/23 11:12:08;;;;;;;2.08;1.50;;;15.00;91.50;;;;;;4992979;28;20023;-73
2021/05/23 11:14:33;;;;;;;1.95;1.50;;;15.00;92.10;;;;;;4994736;28;20507;-72
2021/05/23 11:17:00;;;;;;;2.10;1.35;;;15.10;92.70;;;;;;4975633;28;20044;-72
2021/05/23 11:19:31;;;;;;;3.60;1.50;;;14.90;93.40;;;;;;4975490;28;20497;-72
2021/05/23 11:22:33;;;;;;;1.83;1.20;;;14.80;93.30;;;;;;4991673;28;20044;-72
2021/05/23 11:24:59;;;;;;;2.05;1.30;;;14.90;92.70;;;;;;4992457;28;20092;-72
2021/05/23 11:27:24;;;;;;;2.40;1.40;;;14.90;93.10;;;;;;4975077;28;20035;-72
2021/05/23 11:30:15;;;;;;;3.90;1.20;;;14.70;92.70;;;;;;4994479;28;20102;-73
2021/05/23 11:32:41;;;;;;;1.05;0.95;;;14.60;92.80;;;;;;4992808;28;20108;-73
2021/05/23 11:35:07;;;;;;;3.42;1.42;;;14.60;93.30;;;;;;4992616;28;20034;-72
2021/05/23 11:37:38;;;;;;;1.55;1.38;;;14.70;93.00;;;;;;4975436;28;20061;-72
2021/05/23 11:40:10;;;;;;;1.27;0.93;;;14.80;92.80;;;;;;4974466;28;20038;-72
2021/05/23 11:42:41;;;;;;;1.50;0.98;;;14.70;93.00;;;;;;4992511;28;20388;-73
2021/05/23 11:45:19;;;;;;;1.60;1.10;;;14.90;92.90;;;;;;4993019;28;20146;-73
2021/05/23 11:48:39;;;;;;;1.00;1.00;;;15.00;92.80;;;;;;4993892;28;20057;-73
2021/05/23 11:51:11;;;;;;;1.10;0.98;;;14.80;93.20;;;;;;4992081;28;20359;-73
2021/05/23 11:53:43;;;;;;;1.25;1.15;;;15.00;93.10;;;;;;4993888;28;20018;-73
2021/05/23 11:56:15;;;;;;;1.10;1.00;;;15.00;93.40;;;;;;4992336;28;20062;-74
2021/05/23 11:59:02;;;;;;;3.55;1.35;;;15.10;94.10;;;;;;4991914;28;20137;-73
2021/05/23 12:01:38;;;;;;;3.92;1.00;;;15.30;93.20;;;;;;4974832;28;20300;-73
2021/05/23 12:04:17;;;;;;;2.35;1.20;;;14.90;92.10;;;;;;4992419;28;20057;-72
2021/05/23 12:07:15;;;;;;;1.50;1.30;;;14.90;92.60;;;;;;4974496;28;20042;-72
2021/05/23 12:09:42;;;;;;;3.60;1.60;;;14.60;92.80;;;;;;4991734;28;20636;-72
2021/05/23 12:12:33;;;;;;;4.50;1.58;;;14.70;92.90;;;;;;4991791;28;20356;-72
2021/05/23 12:14:59;;;;;;;3.17;1.83;;;14.70;92.20;;;;;;4991347;28;20023;-71
2021/05/23 12:18:03;;;;;;;4.70;2.00;;;14.60;91.70;;;;;;4993453;28;20681;-71
2021/05/23 12:20:30;;;;;;;6.72;2.08;;;14.70;91.90;;;;;;4914946;29;20115;-73
2021/05/23 12:22:56;;;;;;;4.55;2.63;;;14.90;91.90;;;;;;4965169;28;20034;-73
2021/05/23 12:25:22;;;;;;;4.28;2.47;;;15.00;91.80;;;;;;4991215;28;20030;-72
2021/05/23 12:28:52;;;;;;;5.45;2.53;;;15.10;91.30;;;;;;4974160;28;20129;-72
2021/05/23 12:31:23;;;;;;;6.47;2.55;;;15.30;91.10;;;;;;4990324;28;20279;-72
2021/05/23 12:34:25;;;;;;;6.38;3.55;;;15.60;91.30;;;;;;4990656;28;20062;-73
2021/05/23 12:37:12;;;;;;;8.32;2.67;;;15.90;90.90;;;;;;4991275;28;20034;-71
2021/05/23 12:39:42;;;;;;;7.13;2.22;;;16.00;90.70;;;;;;4990685;28;20506;-73
2021/05/23 12:42:10;;;;;;;6.32;2.78;;;16.00;90.30;;;;;;4990982;28;20026;-73
2021/05/23 12:44:35;;;;;;;4.20;2.33;;;16.10;90.30;;;;;;4992845;28;20105;-72
2021/05/23 12:47:12;;;;;;;5.35;2.10;;;16.30;90.40;;;;;;4991114;28;20177;-72
2021/05/23 12:49:44;;;;;;;5.30;2.10;;;16.40;90.10;;;;;;4973490;28;20058;-74
2021/05/23 12:52:17;;;;;;;6.43;2.47;;;16.40;90.30;;;;;;4990721;28;20034;-71
2021/05/23 12:58:05;;;;;;;5.15;2.28;;;16.10;89.50;;;;;;4989510;28;20518;-71
2021/05/23 13:00:31;;;;;;;10.73;2.15;;;15.90;89.40;;;;;;4991224;28;20046;-71